createdAt,value
2022-12-22T00:01:56.185Z,99579.16
2022-12-22T00:07:16.151Z,99572.19
2022-12-22T00:12:37.709Z,99571.34
2022-12-22T00:17:57.338Z,99569.97
2022-12-22T00:23:17.023Z,99560.28
2022-12-22T00:28:37.018Z,99555.13
2022-12-22T00:33:56.732Z,99536.09
2022-12-22T00:39:17.032Z,99527.16
2022-12-22T00:44:36.865Z,99521.97
2022-12-22T00:50:06.491Z,99520.31
2022-12-22T00:55:34.628Z,99511.63
2022-12-22T01:00:54.573Z,99502.13
2022-12-22T01:06:14.784Z,99493.28
2022-12-22T01:11:35.074Z,99495.34
2022-12-22T01:16:55.259Z,99485.66
2022-12-22T01:22:15.840Z,99486.72
2022-12-22T01:27:35.776Z,99490.88
2022-12-22T01:32:56.075Z,99476.84
2022-12-22T01:38:15.742Z,99463.41
2022-12-22T01:43:41.285Z,99456.34
2022-12-22T01:49:01.113Z,99447.47
2022-12-22T01:54:21.480Z,99442.09
2022-12-22T01:59:41.533Z,99433.84
2022-12-22T02:05:05.640Z,99424.94
2022-12-22T02:10:37.065Z,99418.31
2022-12-22T02:16:34.740Z,99402.81
2022-12-22T02:22:14.152Z,99407.75
2022-12-22T02:27:35.956Z,99386.47
2022-12-22T02:33:03.797Z,99382.97
2022-12-22T02:38:41.740Z,99362.47
2022-12-22T02:44:10.930Z,99349.63
2022-12-22T02:49:40.752Z,99344.06
2022-12-22T02:55:02.499Z,99345.69
2022-12-22T03:00:24.750Z,99344.88
2022-12-22T03:05:44.730Z,99335.56
2022-12-22T03:11:04.846Z,99332.25
2022-12-22T03:16:24.940Z,99325.22
2022-12-22T03:21:45.044Z,99308.25
2022-12-22T03:26:46.489Z,99307.00
2022-12-22T03:31:48.027Z,99286.31
2022-12-22T03:36:49.436Z,99296.47
2022-12-22T03:42:11.103Z,99277.63
2022-12-22T03:47:12.519Z,99257.56
2022-12-22T03:52:14.005Z,99267.69
2022-12-22T03:57:15.383Z,99259.44
2022-12-22T04:02:16.843Z,99253.22
2022-12-22T04:07:18.314Z,99248.84
2022-12-22T04:12:38.096Z,99239.16
2022-12-22T04:17:39.494Z,99240.16
2022-12-22T04:22:40.881Z,99242.88
2022-12-22T04:27:42.237Z,99235.00
2022-12-22T04:32:43.685Z,99221.34
2022-12-22T04:37:45.087Z,99214.53
2022-12-22T04:42:46.447Z,99213.91
2022-12-22T04:47:47.826Z,99215.13
2022-12-22T04:52:49.255Z,99212.44
2022-12-22T04:57:50.624Z,99209.72
2022-12-22T05:02:52.936Z,99195.25
2022-12-22T05:07:54.419Z,99202.28
2022-12-22T05:12:56.340Z,99189.25
2022-12-22T05:23:00.457Z,99173.50
2022-12-22T05:28:01.927Z,99170.00
2022-12-22T05:33:03.473Z,99160.91
2022-12-22T05:38:04.857Z,99155.72
2022-12-22T05:43:06.242Z,99160.50
2022-12-22T05:48:07.685Z,99150.81
2022-12-22T05:53:09.048Z,99141.03
2022-12-22T05:58:10.429Z,99147.06
2022-12-22T06:03:11.980Z,99143.34
2022-12-22T06:08:13.561Z,99137.34
2022-12-22T06:13:14.987Z,99132.78
2022-12-22T06:18:16.950Z,99120.38
2022-12-22T06:23:18.391Z,99113.31
2022-12-22T06:28:19.750Z,99125.94
2022-12-22T06:33:21.805Z,99121.81
2022-12-22T06:38:23.144Z,99113.69
2022-12-22T06:43:25.277Z,99109.53
2022-12-22T06:48:26.613Z,99112.88
2022-12-22T06:53:27.979Z,99110.56
2022-12-22T06:58:29.351Z,99107.00
2022-12-22T07:03:30.821Z,99119.84
2022-12-22T07:08:32.349Z,99115.69
2022-12-22T07:13:35.031Z,99115.91
2022-12-22T07:18:41.473Z,99119.66
2022-12-22T07:23:42.905Z,99117.94
2022-12-22T07:28:44.382Z,99130.56
2022-12-22T07:33:45.941Z,99139.88
2022-12-22T07:38:50.114Z,99134.66
2022-12-22T07:43:56.990Z,99123.47
2022-12-22T07:49:17.110Z,99130.94
2022-12-22T07:54:19.154Z,99140.03
2022-12-22T07:59:20.771Z,99135.28
2022-12-22T08:04:22.546Z,99136.06
2022-12-22T08:09:24.084Z,99130.69
2022-12-22T08:14:25.419Z,99133.41
2022-12-22T08:19:26.893Z,99131.31
2022-12-22T08:24:29.033Z,99131.16
2022-12-22T08:29:38.393Z,99122.88
2022-12-22T08:34:40.407Z,99126.22
2022-12-22T08:39:44.459Z,99115.84
2022-12-22T08:44:47.288Z,99135.34
2022-12-22T08:49:49.929Z,99128.91
2022-12-22T08:54:51.307Z,99129.31
2022-12-22T08:59:52.674Z,99134.50
2022-12-22T09:04:54.004Z,99143.44
2022-12-22T09:09:57.369Z,99152.06
2022-12-22T09:14:58.840Z,99144.66
2022-12-22T09:20:00.307Z,99145.03
2022-12-22T09:25:01.760Z,99161.41
2022-12-22T09:30:03.535Z,99188.09
2022-12-22T09:35:05.431Z,99198.09
2022-12-22T09:40:07.391Z,99192.31
2022-12-22T09:45:19.799Z,99203.06
2022-12-22T09:50:26.314Z,99207.38
2022-12-22T09:55:49.152Z,99200.13
2022-12-22T10:01:06.446Z,99204.25
2022-12-22T10:06:17.260Z,99211.28
2022-12-22T10:11:18.861Z,99219.78
2022-12-22T10:16:23.594Z,99240.06
2022-12-22T10:21:26.188Z,99242.75
2022-12-22T10:26:32.362Z,99243.63
2022-12-22T10:31:37.094Z,99250.03
2022-12-22T10:36:38.872Z,99257.47
2022-12-22T10:41:45.212Z,99256.84
2022-12-22T10:46:50.170Z,99260.09
2022-12-22T10:52:10.773Z,99262.75
2022-12-22T10:57:14.931Z,99272.28
2022-12-22T11:02:27.077Z,99277.00
2022-12-22T11:07:32.331Z,99290.69
2022-12-22T11:12:47.285Z,99285.91
2022-12-22T11:18:16.204Z,99301.84
2022-12-22T11:23:48.094Z,99326.03
2022-12-22T11:29:31.537Z,99333.72
2022-12-22T11:34:48.371Z,99329.78
2022-12-22T11:39:57.470Z,99336.22
2022-12-22T11:45:16.528Z,99343.03
2022-12-22T11:51:00.965Z,99362.09
2022-12-22T11:56:23.613Z,99385.97
2022-12-22T12:02:24.752Z,99387.03
2022-12-22T12:07:31.702Z,99396.97
2022-12-22T12:12:48.284Z,99388.25
2022-12-22T12:18:27.647Z,99407.69
2022-12-22T12:23:43.534Z,99424.09
2022-12-22T12:29:04.962Z,99430.28
2022-12-22T12:34:12.435Z,99431.34
2022-12-22T12:39:18.579Z,99453.34
2022-12-22T12:44:24.868Z,99457.25
2022-12-22T12:49:35.102Z,99451.84
2022-12-22T12:54:47.442Z,99459.06
2022-12-22T12:59:50.323Z,99460.53
2022-12-22T13:05:13.062Z,99491.03
2022-12-22T13:10:24.779Z,99501.84
2022-12-22T13:15:38.096Z,99494.56
2022-12-22T13:20:39.599Z,99519.06
2022-12-22T13:25:48.434Z,99528.72
2022-12-22T13:31:15.963Z,99535.53
2022-12-22T13:36:26.052Z,99539.22
2022-12-22T13:41:28.700Z,99542.75
2022-12-22T13:46:32.878Z,99540.50
2022-12-22T13:51:37.473Z,99550.06
2022-12-22T13:56:49.540Z,99551.56
2022-12-22T14:01:56.151Z,99564.06
2022-12-22T14:06:57.656Z,99566.56
2022-12-22T14:12:02.562Z,99568.03
2022-12-22T14:17:04.850Z,99579.03
2022-12-22T14:22:14.905Z,99573.22
2022-12-22T14:27:30.395Z,99592.97
2022-12-22T14:32:52.448Z,99590.69
2022-12-22T14:38:16.101Z,99594.59
2022-12-22T14:43:17.427Z,99602.50
2022-12-22T14:48:30.374Z,99596.88
2022-12-22T14:53:42.901Z,99614.91
2022-12-22T14:58:46.496Z,99618.66
2022-12-22T15:04:15.055Z,99625.06
2022-12-22T15:09:16.399Z,99630.88
2022-12-22T15:14:36.647Z,99627.97
2022-12-22T15:19:39.753Z,99621.97
2022-12-22T15:24:41.084Z,99627.34
2022-12-22T15:29:42.482Z,99620.69
2022-12-22T15:34:43.838Z,99631.28
2022-12-22T15:39:45.191Z,99624.59
2022-12-22T15:44:46.588Z,99629.75
2022-12-22T15:49:47.944Z,99629.53
2022-12-22T15:54:49.302Z,99629.75
2022-12-22T15:59:50.647Z,99629.91
2022-12-22T16:04:52.039Z,99637.81
2022-12-22T16:09:53.472Z,99631.56
2022-12-22T16:14:58.726Z,99620.13
2022-12-22T16:20:00.420Z,99621.38
2022-12-22T16:25:05.186Z,99629.66
2022-12-22T16:30:11.855Z,99608.22
2022-12-22T16:35:13.883Z,99611.88
2022-12-22T16:40:16.876Z,99596.94
2022-12-22T16:45:22.226Z,99603.13
2022-12-22T16:50:32.398Z,99609.28
2022-12-22T16:55:35.737Z,99610.47
2022-12-22T17:00:39.385Z,99605.25
2022-12-22T17:05:50.368Z,99613.91
2022-12-22T17:10:54.175Z,99598.97
2022-12-22T17:15:55.569Z,99598.41
2022-12-22T17:20:59.685Z,99598.22
2022-12-22T17:26:05.725Z,99591.16
2022-12-22T17:31:07.348Z,99576.28
2022-12-22T17:36:31.777Z,99569.94
2022-12-22T17:41:33.369Z,99572.63
2022-12-22T17:46:35.013Z,99557.72
2022-12-22T17:51:37.452Z,99558.78
2022-12-22T17:56:39.173Z,99550.28
2022-12-22T18:01:40.778Z,99546.97
2022-12-22T18:06:42.632Z,99541.78
2022-12-22T18:11:46.174Z,99534.59
2022-12-22T18:16:47.805Z,99522.97
2022-12-22T18:21:49.260Z,99514.50
2022-12-22T18:26:50.721Z,99510.00
2022-12-22T18:31:52.284Z,99504.63
2022-12-22T18:36:53.709Z,99506.47
2022-12-22T18:41:55.983Z,99502.78
2022-12-22T18:46:57.364Z,99499.66
2022-12-22T18:51:58.708Z,99493.88
2022-12-22T18:57:00.059Z,99482.25
2022-12-22T19:02:19.222Z,99479.59
2022-12-22T19:07:23.641Z,99474.41
2022-12-22T19:12:27.695Z,99479.97
2022-12-22T19:22:45.587Z,99462.78
2022-12-22T19:27:50.044Z,99451.66
2022-12-22T19:33:00.796Z,99460.09
2022-12-22T19:38:03.408Z,99447.94
2022-12-22T19:43:04.831Z,99442.97
2022-12-22T19:48:16.581Z,99433.44
2022-12-22T19:53:18.679Z,99416.69
2022-12-22T19:58:23.695Z,99394.75
2022-12-22T20:03:26.120Z,99393.28
2022-12-22T20:08:27.675Z,99395.13
2022-12-22T20:13:35.140Z,99389.31
2022-12-22T20:18:36.505Z,99391.56
2022-12-22T20:23:39.211Z,99385.16
2022-12-22T20:28:40.716Z,99377.50
2022-12-22T20:33:42.257Z,99373.56
2022-12-22T20:38:44.518Z,99366.75
2022-12-22T20:43:46.148Z,99368.63
2022-12-22T20:48:56.105Z,99368.41
2022-12-22T20:53:58.391Z,99359.09
2022-12-22T20:59:06.874Z,99359.94
2022-12-22T21:04:08.549Z,99348.53
2022-12-22T21:09:12.512Z,99348.59
2022-12-22T21:14:14.406Z,99346.28
2022-12-22T21:19:18.423Z,99337.41
2022-12-22T21:24:20.074Z,99327.25
2022-12-22T21:29:26.113Z,99329.56
2022-12-22T21:34:27.531Z,99320.88
2022-12-22T21:39:36.877Z,99322.13
2022-12-22T21:44:38.255Z,99305.34
2022-12-22T21:49:39.624Z,99310.53
2022-12-22T21:54:40.979Z,99307.41
2022-12-22T21:59:42.304Z,99304.72
2022-12-22T22:04:49.950Z,99307.00
2022-12-22T22:09:55.303Z,99309.91
2022-12-22T22:14:56.711Z,99306.16
2022-12-22T22:19:58.081Z,99302.47
2022-12-22T22:24:59.397Z,99286.50
2022-12-22T22:30:00.769Z,99277.84
2022-12-22T22:35:02.125Z,99280.09
2022-12-22T22:40:03.772Z,99271.00
2022-12-22T22:45:06.516Z,99265.00
2022-12-22T22:50:08.841Z,99266.88
2022-12-22T22:55:12.539Z,99268.09
2022-12-22T23:00:16.580Z,99267.28
2022-12-22T23:05:22.652Z,99274.94
2022-12-22T23:10:24.522Z,99260.66
2022-12-22T23:15:25.916Z,99266.88
2022-12-22T23:20:28.418Z,99266.44
2022-12-22T23:25:29.747Z,99251.16
2022-12-22T23:30:31.064Z,99256.50
2022-12-22T23:35:36.115Z,99259.44
2022-12-22T23:40:52.283Z,99264.19
2022-12-22T23:45:55.212Z,99261.28
2022-12-22T23:50:57.623Z,99237.47
2022-12-22T23:55:58.959Z,99239.78
